Abbot Village, Maine
Current Conditions -  °F | °C
As of 7:53 PM on Saturday 25 Oct 2014 (Local Time) from KBGR Reporting Station
Broken Clouds Broken Clouds  
Wind Chill: 45°   Ceiling: 25000
Heat Index: 47°   Visibility: 10mi
Dew Point: 42°   Wind: 5mph
Humidity: 83%   Direction: 150°SSE
Pressure: 29.53"   Gusts: NA
Location:  45.19°N, 69.45°W
Report Text: KBGR 252353Z 15004KT 10SM BKN250 08/06 A2953 RMK AO2 SLP000 T00830056 10161 20083 58002
Loading
Personal Weather Stations






























Interactive Weather Map New forecast layout! Learn more

10-Day Weather Forecast

Advertisements
Track Severe Weather on mobile